Pagina principale
METAR-TAF:

METAR-TAF

Aeroporti :

Chengdu, Cina

Aeroporto di Chengdu-Shuangliu

latitudine: 30-40N, longitudine: 104-01E, altezza: 508 m

Osservazione

Il bollettino è stato emesso 26 minuti fa, alle 21:00 UTC
Vento 2 kt da direzioni variabili
Temperature 12°C
Umidità 67%
Pressione 1023 hPa
Visibilità 10 km o più
nessuna nube inferiore a 1500 m e nessun cumulonembo

METAR: ZUUU 242100Z VRB01MPS CAVOK 12/06 Q1023 NOSIG

Ora: 05:26 (21:26 UTC)

Previsione

Il bollettino è stato emesso 7 ore e 16 minuti fa, alle 14:10 UTC
Previsione valida dal 24 alle 18 UTC al 25 alle 18 UTC
Vento 6 kt da sud/sud-ovest
Visibilità: 5000 m
Nubi sparse ad un'altezza di 5000 ft
foschia
Evoluzione graduale
dal 24 alle 21 UTC al 24 alle 22 UTC
Visibilità: 2700 m
Evoluzione graduale
dal 25 alle 01 UTC al 25 alle 02 UTC
Visibilità: 5000 m

TAF: ZUUU 241410Z 2418/2518 20003MPS 5000 BR SCT050 TX20/2507Z TN05/2423Z BECMG 2421/2422 2700 BECMG 2501/2502 5000

Osservazioni e previsioni meteorologiche di più di 4000 aeroporti (messaggi METAR e TAF).

Le stazioni disponibili sono rappresentate dai dischi gialli e rossi sulla carta.

Puntare il mouse per vedere il nome della stazione.

Clicca sopra per visualizzare le osservazioni e previsioni meteorologiche.

Per cambiare la mappa : fare clic sui pulsanti verdi con una croce nera per ingrandire, il pulsante verde con un trattino per diminuire, o sulla freccia verde per le mappe adiacenti.


METAR-TAF: